createdAt,value
2016-04-07T00:00:16.604Z,0
2016-04-07T00:01:16.589Z,0
2016-04-07T00:02:16.592Z,0
2016-04-07T00:03:16.595Z,0
2016-04-07T00:04:16.598Z,0
2016-04-07T00:05:16.585Z,0
2016-04-07T00:06:16.603Z,0
2016-04-07T00:07:16.606Z,0
2016-04-07T00:08:16.656Z,0
2016-04-07T00:09:16.611Z,0
2016-04-07T00:10:16.614Z,0
2016-04-07T00:11:16.586Z,0
2016-04-07T00:12:16.620Z,0
2016-04-07T00:13:16.591Z,0
2016-04-07T00:14:16.594Z,0
2016-04-07T00:15:16.596Z,0
2016-04-07T00:16:16.623Z,0
2016-04-07T00:17:16.670Z,0
2016-04-07T00:18:16.717Z,0
2016-04-07T00:19:16.748Z,0
2016-04-07T00:20:16.639Z,0
2016-04-07T00:21:16.826Z,0
2016-04-07T00:22:16.845Z,0
2016-04-07T00:23:16.785Z,0
2016-04-07T00:24:16.881Z,0
2016-04-07T00:25:16.900Z,0
2016-04-07T00:26:16.913Z,0
2016-04-07T00:27:16.906Z,0
2016-04-07T00:28:16.898Z,0
2016-04-07T00:29:16.908Z,0
2016-04-07T00:30:16.915Z,0
2016-04-07T00:31:16.922Z,0
2016-04-07T00:32:16.927Z,0
2016-04-07T00:33:16.931Z,0
2016-04-07T00:34:16.920Z,0
2016-04-07T00:35:16.925Z,0
2016-04-07T00:36:16.929Z,0
2016-04-07T00:37:16.948Z,0
2016-04-07T00:38:16.889Z,0
2016-04-07T00:39:16.940Z,0
2016-04-07T00:40:16.943Z,0
2016-04-07T00:41:16.931Z,0
2016-04-07T00:42:16.917Z,0
2016-04-07T00:43:16.937Z,0
2016-04-07T00:44:16.971Z,0
2016-04-07T00:45:16.942Z,0
2016-04-07T00:46:16.930Z,0
2016-04-07T00:47:16.979Z,0
2016-04-07T00:48:16.950Z,0
2016-04-07T00:49:16.937Z,0
2016-04-07T00:50:16.925Z,0
2016-04-07T00:51:16.928Z,0
2016-04-07T00:52:16.930Z,0
2016-04-07T00:53:16.948Z,0
2016-04-07T00:54:16.920Z,0
2016-04-07T00:55:16.923Z,0
2016-04-07T00:56:16.941Z,0
2016-04-07T00:57:16.928Z,0
2016-04-07T00:58:16.915Z,0
2016-04-07T00:59:16.917Z,0
2016-04-07T01:00:16.936Z,0
2016-04-07T01:01:16.939Z,0
2016-04-07T01:02:16.926Z,0
2016-04-07T01:03:16.928Z,0
2016-04-07T01:04:16.931Z,0
2016-04-07T01:05:16.919Z,0
2016-04-07T01:06:16.937Z,0
2016-04-07T01:07:16.955Z,0
2016-04-07T01:08:16.958Z,0
2016-04-07T01:09:16.945Z,0
2016-04-07T01:10:16.932Z,0
2016-04-07T01:11:16.919Z,0
2016-04-07T01:12:16.922Z,0
2016-04-07T01:13:16.924Z,0
2016-04-07T01:14:16.927Z,0
2016-04-07T01:15:16.930Z,0
2016-04-07T01:16:16.932Z,0
2016-04-07T01:17:16.934Z,0
2016-04-07T01:18:16.968Z,0
2016-04-07T01:19:16.925Z,0
2016-04-07T01:20:16.912Z,0
2016-04-07T01:21:16.915Z,0
2016-04-07T01:22:16.948Z,0
2016-04-07T01:23:16.936Z,0
2016-04-07T01:24:16.922Z,0
2016-04-07T01:25:16.909Z,0
2016-04-07T01:26:16.912Z,0
2016-04-07T01:27:16.962Z,0
2016-04-07T01:28:16.917Z,0
2016-04-07T01:29:16.952Z,0
2016-04-07T01:30:16.908Z,0
2016-04-07T01:31:16.925Z,0
2016-04-07T01:32:16.913Z,0
2016-04-07T01:33:16.931Z,0
2016-04-07T01:34:16.761Z,0
2016-04-07T01:35:16.905Z,0
2016-04-07T01:36:16.908Z,0
2016-04-07T01:37:16.927Z,0
2016-04-07T01:38:16.930Z,0
2016-04-07T01:39:16.760Z,0
2016-04-07T01:40:16.919Z,0
2016-04-07T01:41:16.921Z,0
2016-04-07T01:42:16.908Z,0
2016-04-07T01:43:16.911Z,0
2016-04-07T01:44:16.914Z,0
2016-04-07T01:45:16.916Z,0
2016-04-07T01:46:16.904Z,0
2016-04-07T01:47:16.921Z,0
2016-04-07T01:48:16.909Z,0
2016-04-07T01:49:16.912Z,0
2016-04-07T01:50:16.899Z,0
2016-04-07T01:51:16.917Z,0
2016-04-07T01:52:16.920Z,0
2016-04-07T01:53:16.907Z,0
2016-04-07T01:54:16.909Z,0
2016-04-07T01:55:16.912Z,0
2016-04-07T01:56:16.900Z,0
2016-04-07T01:57:16.902Z,0
2016-04-07T01:58:16.905Z,0
2016-04-07T01:59:16.907Z,0
2016-04-07T02:00:16.910Z,0
2016-04-07T02:01:16.897Z,0
2016-04-07T02:02:16.900Z,0
2016-04-07T02:03:16.902Z,0
2016-04-07T02:04:16.889Z,0
2016-04-07T02:05:16.908Z,0
2016-04-07T02:06:16.910Z,0
2016-04-07T02:07:16.897Z,0
2016-04-07T02:08:16.900Z,0
2016-04-07T02:09:16.919Z,0
2016-04-07T02:10:16.906Z,0
2016-04-07T02:11:16.908Z,0
2016-04-07T02:12:16.895Z,0
2016-04-07T02:13:16.883Z,0
2016-04-07T02:14:16.901Z,0
2016-04-07T02:15:16.888Z,0
2016-04-07T02:16:16.891Z,0
2016-04-07T02:17:16.893Z,0
2016-04-07T02:18:16.912Z,0
2016-04-07T02:19:17.165Z,0
2016-04-07T02:20:16.901Z,0
2016-04-07T02:21:16.888Z,0
2016-04-07T02:22:16.891Z,0
2016-04-07T02:23:16.893Z,0
2016-04-07T02:24:16.896Z,0
2016-04-07T02:25:16.884Z,0
2016-04-07T02:26:16.887Z,0
2016-04-07T02:27:16.889Z,0
2016-04-07T02:28:16.892Z,0
2016-04-07T02:29:16.723Z,0
2016-04-07T02:30:16.882Z,0
2016-04-07T02:31:16.884Z,0
2016-04-07T02:32:16.886Z,0
2016-04-07T02:33:16.936Z,0
2016-04-07T02:34:16.877Z,0
2016-04-07T02:35:16.895Z,0
2016-04-07T02:36:16.898Z,0
2016-04-07T02:37:16.885Z,0
2016-04-07T02:38:16.887Z,0
2016-04-07T02:39:16.874Z,0
2016-04-07T02:40:16.877Z,0
2016-04-07T02:41:16.895Z,0
2016-04-07T02:42:16.882Z,0
2016-04-07T02:43:16.885Z,0
2016-04-07T02:44:16.888Z,0
2016-04-07T02:45:16.890Z,0
2016-04-07T02:46:16.877Z,0
2016-04-07T02:47:16.880Z,0
2016-04-07T02:48:16.883Z,0
2016-04-07T02:49:16.885Z,0
2016-04-07T02:50:16.888Z,0
2016-04-07T02:51:16.876Z,0
2016-04-07T02:52:16.878Z,0
2016-04-07T02:53:16.881Z,0
2016-04-07T02:54:16.868Z,0
2016-04-07T02:55:16.871Z,0
2016-04-07T02:56:16.873Z,0
2016-04-07T02:57:16.876Z,0
2016-04-07T02:58:16.878Z,0
2016-04-07T02:59:16.881Z,0
2016-04-07T03:00:16.884Z,0
2016-04-07T03:01:16.871Z,0
2016-04-07T03:02:16.873Z,0
2016-04-07T03:03:16.876Z,0
2016-04-07T03:04:16.879Z,0
2016-04-07T03:05:16.867Z,0
2016-04-07T03:06:16.884Z,0
2016-04-07T03:07:16.856Z,0
2016-04-07T03:08:16.859Z,0
2016-04-07T03:09:16.877Z,0
2016-04-07T03:10:16.880Z,0
2016-04-07T03:11:16.867Z,0
2016-04-07T03:12:16.870Z,0
2016-04-07T03:13:16.871Z,0
2016-04-07T03:14:16.859Z,0
2016-04-07T03:15:16.862Z,0
2016-04-07T03:16:16.865Z,0
2016-04-07T03:17:16.867Z,0
2016-04-07T03:18:16.854Z,0
2016-04-07T03:19:16.856Z,0
2016-04-07T03:20:16.860Z,0
2016-04-07T03:21:16.862Z,0
2016-04-07T03:22:16.865Z,0
2016-04-07T03:23:16.867Z,0
2016-04-07T03:24:16.870Z,0
2016-04-07T03:25:16.857Z,0
2016-04-07T03:26:16.860Z,0
2016-04-07T03:27:16.878Z,0
2016-04-07T03:28:16.881Z,0
2016-04-07T03:29:16.853Z,0
2016-04-07T03:30:16.870Z,0
2016-04-07T03:31:16.858Z,0
2016-04-07T03:32:16.845Z,0
2016-04-07T03:33:16.864Z,0
2016-04-07T03:34:16.881Z,0
2016-04-07T03:35:16.884Z,0
2016-04-07T03:36:16.872Z,0
2016-04-07T03:37:16.843Z,0
2016-04-07T03:38:16.845Z,0
2016-04-07T03:39:16.848Z,0
2016-04-07T03:40:16.851Z,0
2016-04-07T03:41:16.853Z,0
2016-04-07T03:42:16.841Z,0
2016-04-07T03:43:16.858Z,0
2016-04-07T03:44:16.847Z,0
2016-04-07T03:45:16.849Z,0
2016-04-07T03:46:16.852Z,0
2016-04-07T03:47:16.855Z,0
2016-04-07T03:48:16.856Z,0
2016-04-07T03:49:16.843Z,0
2016-04-07T03:50:16.846Z,0
2016-04-07T03:51:16.849Z,0
2016-04-07T03:52:16.851Z,0
2016-04-07T03:53:16.855Z,0
2016-04-07T03:54:16.858Z,0
2016-04-07T03:55:16.891Z,0
2016-04-07T03:56:16.847Z,0
2016-04-07T03:57:16.850Z,0
2016-04-07T03:58:24.571Z,0
2016-04-07T03:59:16.855Z,0
2016-04-07T04:00:16.858Z,0
2016-04-07T04:01:16.845Z,0
2016-04-07T04:02:16.847Z,0
2016-04-07T04:03:16.834Z,0
2016-04-07T04:04:16.837Z,0
2016-04-07T04:05:16.840Z,0
2016-04-07T04:06:16.842Z,0
2016-04-07T04:07:16.830Z,0
2016-04-07T04:08:16.833Z,0
2016-04-07T04:09:16.898Z,0
2016-04-07T04:10:16.838Z,0
2016-04-07T04:11:16.841Z,0
2016-04-07T04:12:16.844Z,0
2016-04-07T04:13:16.830Z,0
2016-04-07T04:14:16.849Z,0
2016-04-07T04:15:16.836Z,0
2016-04-07T04:16:16.838Z,0
2016-04-07T04:17:16.841Z,0
2016-04-07T04:18:16.828Z,0
2016-04-07T04:19:16.831Z,0
2016-04-07T04:20:16.833Z,0
2016-04-07T04:21:16.836Z,4
2016-04-07T04:22:16.824Z,4
2016-04-07T04:23:16.841Z,4
2016-04-07T04:24:16.891Z,4
2016-04-07T04:25:16.832Z,4
2016-04-07T04:26:16.943Z,8
2016-04-07T04:27:16.821Z,8
2016-04-07T04:28:16.840Z,8
2016-04-07T04:29:16.827Z,12
2016-04-07T04:30:16.828Z,12
2016-04-07T04:31:16.831Z,16
2016-04-07T04:32:16.959Z,20
2016-04-07T04:33:16.837Z,24
2016-04-07T04:34:16.809Z,24
2016-04-07T04:35:16.827Z,28
2016-04-07T04:36:16.814Z,36
2016-04-07T04:37:16.832Z,40
2016-04-07T04:38:16.819Z,48
2016-04-07T04:39:16.806Z,56
2016-04-07T04:40:16.809Z,68
2016-04-07T04:41:16.828Z,76
2016-04-07T04:42:16.846Z,84
2016-04-07T04:43:16.816Z,92
2016-04-07T04:44:16.835Z,100
2016-04-07T04:45:16.807Z,116
2016-04-07T04:46:16.825Z,128
2016-04-07T04:47:16.859Z,144
2016-04-07T04:48:16.830Z,156
2016-04-07T04:49:16.818Z,172
2016-04-07T04:50:16.821Z,184
2016-04-07T04:51:16.823Z,200
2016-04-07T04:52:16.810Z,220
2016-04-07T04:53:16.813Z,232
2016-04-07T04:54:16.832Z,252
2016-04-07T04:55:16.818Z,276
2016-04-07T04:56:16.837Z,296
2016-04-07T04:57:16.808Z,320
2016-04-07T04:58:16.810Z,352
2016-04-07T04:59:16.813Z,388
2016-04-07T05:00:16.815Z,420
2016-04-07T05:01:16.818Z,452
2016-04-07T05:02:16.821Z,488
2016-04-07T05:03:16.809Z,524
2016-04-07T05:04:16.826Z,560
2016-04-07T05:05:16.814Z,600
2016-04-07T05:06:16.848Z,648
2016-04-07T05:07:16.820Z,692
2016-04-07T05:08:16.791Z,732
2016-04-07T05:09:17.044Z,756
2016-04-07T05:10:16.811Z,764
2016-04-07T05:11:16.814Z,788
2016-04-07T05:12:16.817Z,816
2016-04-07T05:13:16.819Z,832
2016-04-07T05:14:16.808Z,852
2016-04-07T05:15:16.825Z,872
2016-04-07T05:16:16.813Z,880
2016-04-07T05:17:16.815Z,872
2016-04-07T05:18:16.818Z,884
2016-04-07T05:19:16.805Z,916
2016-04-07T05:20:16.807Z,1008
2016-04-07T05:21:16.794Z,1064
2016-04-07T05:22:16.813Z,1040
2016-04-07T05:23:16.799Z,1012
2016-04-07T05:24:16.880Z,1040
2016-04-07T05:25:16.804Z,1076
2016-04-07T05:26:16.807Z,1112
2016-04-07T05:27:16.810Z,1164
2016-04-07T05:28:16.798Z,1212
2016-04-07T05:29:16.801Z,1276
2016-04-07T05:30:16.959Z,1348
2016-04-07T05:31:16.806Z,1364
2016-04-07T05:32:16.808Z,1340
2016-04-07T05:33:16.795Z,1336
2016-04-07T05:34:16.798Z,1320
2016-04-07T05:35:16.801Z,1368
2016-04-07T05:36:16.803Z,1524
2016-04-07T05:37:16.790Z,1556
2016-04-07T05:38:16.637Z,1564
2016-04-07T05:39:16.828Z,1444
2016-04-07T05:40:16.798Z,1344
2016-04-07T05:41:16.786Z,1328
2016-04-07T05:42:16.803Z,1264
2016-04-07T05:43:16.791Z,1260
2016-04-07T05:44:16.794Z,1260
2016-04-07T05:45:16.797Z,1328
2016-04-07T05:46:16.799Z,1328
2016-04-07T05:47:16.786Z,1340
2016-04-07T05:48:16.789Z,1392
2016-04-07T05:49:16.792Z,1424
2016-04-07T05:50:16.794Z,1436
2016-04-07T05:51:16.782Z,1456
2016-04-07T05:52:16.800Z,1552
2016-04-07T05:53:16.771Z,1700
2016-04-07T05:54:17.040Z,1716
2016-04-07T05:55:16.777Z,1608
2016-04-07T05:56:16.780Z,1596
2016-04-07T05:57:16.782Z,1748
2016-04-07T05:58:16.784Z,1824
2016-04-07T05:59:16.631Z,1728
2016-04-07T06:00:16.790Z,1732
2016-04-07T06:01:16.620Z,1680
2016-04-07T06:02:16.779Z,1636
2016-04-07T06:03:16.767Z,1656
2016-04-07T06:04:16.785Z,1712
2016-04-07T06:05:16.787Z,1756
2016-04-07T06:06:16.775Z,1828
2016-04-07T06:07:16.792Z,1748
2016-04-07T06:08:16.811Z,1688
2016-04-07T06:09:16.756Z,1644
2016-04-07T06:10:16.791Z,1620
2016-04-07T06:11:16.778Z,1608
2016-04-07T06:12:16.780Z,1608
2016-04-07T06:13:16.799Z,1632
2016-04-07T06:14:16.786Z,1652
2016-04-07T06:15:16.772Z,1684
2016-04-07T06:16:16.791Z,1668
2016-04-07T06:17:16.763Z,1668
2016-04-07T06:18:16.780Z,1704
2016-04-07T06:19:16.768Z,1696
2016-04-07T06:20:16.771Z,1700
2016-04-07T06:21:16.774Z,1696
2016-04-07T06:22:16.916Z,1708
2016-04-07T06:23:16.763Z,1684
2016-04-07T06:24:16.906Z,1684
2016-04-07T06:25:16.768Z,1672
2016-04-07T06:26:16.770Z,1680
2016-04-07T06:27:16.773Z,1656
2016-04-07T06:28:16.760Z,1640
2016-04-07T06:29:16.763Z,1644
2016-04-07T06:30:16.781Z,1664
2016-04-07T06:31:16.753Z,1680
2016-04-07T06:32:16.771Z,1708
2016-04-07T06:33:16.758Z,1724
2016-04-07T06:34:16.761Z,1768
2016-04-07T06:35:16.764Z,1836
2016-04-07T06:36:16.767Z,1840
2016-04-07T06:37:16.753Z,1816
2016-04-07T06:38:16.772Z,1828
2016-04-07T06:39:16.680Z,1880
2016-04-07T06:40:16.762Z,1968
2016-04-07T06:41:16.608Z,2092
2016-04-07T06:42:16.767Z,2036
2016-04-07T06:43:16.770Z,2000
2016-04-07T06:44:16.773Z,1968
2016-04-07T06:45:16.760Z,1956
2016-04-07T06:46:16.762Z,1920
2016-04-07T06:47:16.780Z,1776
2016-04-07T06:48:16.768Z,1668
2016-04-07T06:49:16.817Z,1632
2016-04-07T06:50:16.774Z,1580
2016-04-07T06:51:16.760Z,1544
2016-04-07T06:52:16.763Z,1576
2016-04-07T06:53:17.359Z,1620
2016-04-07T06:54:16.830Z,1604
2016-04-07T06:55:16.770Z,1568
2016-04-07T06:56:16.757Z,1484
2016-04-07T06:57:16.760Z,1516
2016-04-07T06:58:16.763Z,1568
2016-04-07T06:59:16.751Z,1644
2016-04-07T07:00:16.753Z,1644
2016-04-07T07:01:16.756Z,1668
2016-04-07T07:02:16.758Z,1796
2016-04-07T07:03:16.761Z,1964
2016-04-07T07:04:16.764Z,1912
2016-04-07T07:05:16.767Z,2016
2016-04-07T07:06:16.785Z,1796
2016-04-07T07:07:16.615Z,1696
2016-04-07T07:08:16.775Z,1644
2016-04-07T07:09:16.621Z,1704
2016-04-07T07:10:16.748Z,1732
2016-04-07T07:11:16.767Z,1632
2016-04-07T07:12:16.753Z,1636
2016-04-07T07:13:16.756Z,1692
2016-04-07T07:14:17.041Z,1752
2016-04-07T07:15:16.762Z,1708
2016-04-07T07:16:16.750Z,1764
2016-04-07T07:17:16.471Z,1988
2016-04-07T07:18:16.755Z,1920
2016-04-07T07:19:16.757Z,1696
2016-04-07T07:20:16.760Z,1876
2016-04-07T07:21:16.763Z,1988
2016-04-07T07:22:16.765Z,1992
2016-04-07T07:23:16.752Z,2016
2016-04-07T07:24:16.770Z,1884
2016-04-07T07:25:16.757Z,1808
2016-04-07T07:26:16.745Z,1804
2016-04-07T07:27:16.763Z,1804
2016-04-07T07:28:16.751Z,1776
2016-04-07T07:29:16.753Z,1752
2016-04-07T07:30:16.599Z,1964
2016-04-07T07:31:16.773Z,2160
2016-04-07T07:32:16.808Z,2160
2016-04-07T07:33:16.660Z,2104
2016-04-07T07:34:16.756Z,2212
2016-04-07T07:35:16.759Z,2188
2016-04-07T07:36:16.746Z,2144
2016-04-07T07:37:16.749Z,2020
2016-04-07T07:38:16.736Z,1928
2016-04-07T07:39:16.910Z,2000
2016-04-07T07:40:16.950Z,2144
2016-04-07T07:41:16.748Z,2468
2016-04-07T07:42:16.751Z,2584
2016-04-07T07:43:16.754Z,2648
2016-04-07T07:44:16.756Z,2576
2016-04-07T07:45:16.759Z,2688
2016-04-07T07:46:16.512Z,2700
2016-04-07T07:47:16.750Z,2676
2016-04-07T07:48:16.753Z,2640
2016-04-07T07:49:16.755Z,2632
2016-04-07T07:50:16.695Z,2572
2016-04-07T07:51:16.760Z,2624
2016-04-07T07:52:16.591Z,2588
2016-04-07T07:53:16.749Z,2596
2016-04-07T07:54:16.846Z,2512
2016-04-07T07:55:16.755Z,2276
2016-04-07T07:56:16.742Z,2388
2016-04-07T07:57:16.760Z,2376
2016-04-07T07:58:16.560Z,2604
2016-04-07T07:59:16.751Z,2720
2016-04-07T08:00:16.613Z,2696
2016-04-07T08:01:16.756Z,2764
2016-04-07T08:02:16.759Z,2844
2016-04-07T08:03:16.762Z,2884
2016-04-07T08:04:16.764Z,2896
2016-04-07T08:05:16.751Z,2928
2016-04-07T08:06:16.597Z,2908
2016-04-07T08:07:16.756Z,2884
2016-04-07T08:08:16.759Z,2900
2016-04-07T08:09:16.746Z,2976
2016-04-07T08:10:16.765Z,3088
2016-04-07T08:11:16.751Z,3236
2016-04-07T08:12:16.754Z,3308
2016-04-07T08:13:16.772Z,3444
2016-04-07T08:14:16.759Z,3524
2016-04-07T08:15:16.778Z,3608
2016-04-07T08:16:16.765Z,3696
2016-04-07T08:17:16.753Z,3728
2016-04-07T08:18:16.755Z,3924
2016-04-07T08:19:16.758Z,4020
2016-04-07T08:20:16.775Z,4196
2016-04-07T08:21:16.778Z,4304
2016-04-07T08:22:16.766Z,4128
2016-04-07T08:23:16.768Z,3964
2016-04-07T08:24:16.771Z,4064
2016-04-07T08:25:16.773Z,3972
2016-04-07T08:26:16.760Z,3660
2016-04-07T08:27:16.763Z,3732
2016-04-07T08:28:16.766Z,4480
2016-04-07T08:29:16.769Z,5208
2016-04-07T08:30:16.788Z,5516
2016-04-07T08:31:16.790Z,5544
2016-04-07T08:32:16.777Z,5548
2016-04-07T08:33:16.810Z,5400
2016-04-07T08:34:16.798Z,5372
2016-04-07T08:35:16.784Z,5364
2016-04-07T08:36:16.451Z,5292
2016-04-07T08:37:16.776Z,5012
2016-04-07T08:38:16.778Z,4848
2016-04-07T08:39:16.797Z,4760
2016-04-07T08:40:16.783Z,4664
2016-04-07T08:41:16.802Z,4516
2016-04-07T08:42:16.788Z,4572
2016-04-07T08:43:16.760Z,4672
2016-04-07T08:44:16.794Z,4232
2016-04-07T08:45:16.782Z,3932
2016-04-07T08:46:16.769Z,4048
2016-04-07T08:47:16.771Z,4020
2016-04-07T08:48:16.774Z,3960
2016-04-07T08:49:16.776Z,4080
2016-04-07T08:50:16.763Z,3844
2016-04-07T08:51:16.781Z,3544
2016-04-07T08:52:17.143Z,3408
2016-04-07T08:53:16.787Z,3272
2016-04-07T08:54:16.774Z,3212
2016-04-07T08:55:20.167Z,3200
2016-04-07T08:56:16.795Z,3052
2016-04-07T08:57:16.767Z,2912
2016-04-07T08:58:16.769Z,2856
2016-04-07T08:59:16.834Z,3116
2016-04-07T09:00:16.790Z,3656
2016-04-07T09:01:16.778Z,3964
2016-04-07T09:02:16.781Z,3716
2016-04-07T09:03:16.783Z,3620
2016-04-07T09:04:16.786Z,3632
2016-04-07T09:05:16.788Z,3440
2016-04-07T09:06:16.791Z,3020
2016-04-07T09:07:17.324Z,2736
2016-04-07T09:08:16.796Z,2752
2016-04-07T09:09:16.799Z,2784
2016-04-07T09:10:16.646Z,2896
2016-04-07T09:11:16.788Z,2952
2016-04-07T09:12:16.792Z,2896
2016-04-07T09:13:16.794Z,2740
2016-04-07T09:14:16.782Z,2808
2016-04-07T09:15:16.799Z,2836
2016-04-07T09:16:16.802Z,2732
2016-04-07T09:17:16.805Z,2720
2016-04-07T09:18:16.807Z,2852
2016-04-07T09:19:16.810Z,2868
2016-04-07T09:20:16.812Z,2940
2016-04-07T09:21:16.816Z,2980
2016-04-07T09:22:16.842Z,2980
2016-04-07T09:23:16.881Z,2888
2016-04-07T09:24:16.936Z,2776
2016-04-07T09:25:16.944Z,2704
2016-04-07T09:26:17.404Z,2804
2016-04-07T09:27:17.007Z,2852
2016-04-07T09:28:17.024Z,2796
2016-04-07T09:29:17.039Z,2708
2016-04-07T09:30:17.039Z,2656
2016-04-07T09:31:17.071Z,2680
2016-04-07T09:32:17.081Z,2640
2016-04-07T09:33:17.072Z,2672
2016-04-07T09:34:17.126Z,2660
2016-04-07T09:35:17.086Z,2672
2016-04-07T09:36:17.094Z,2576
2016-04-07T09:37:17.099Z,2532
2016-04-07T09:38:17.104Z,2612
2016-04-07T09:39:17.093Z,2476
2016-04-07T09:40:17.098Z,2372
2016-04-07T09:41:17.102Z,2572
2016-04-07T09:42:17.122Z,2668
2016-04-07T09:43:17.109Z,2372
2016-04-07T09:44:17.129Z,2328
2016-04-07T09:45:17.116Z,2444
2016-04-07T09:46:17.119Z,2520
2016-04-07T09:47:17.122Z,2472
2016-04-07T09:48:17.125Z,2552
2016-04-07T09:49:17.113Z,2592
2016-04-07T09:50:17.131Z,2672
2016-04-07T09:51:17.118Z,2776
2016-04-07T09:52:16.980Z,2800
2016-04-07T09:53:16.998Z,2912
2016-04-07T09:54:17.141Z,3200
2016-04-07T09:55:17.191Z,3140
2016-04-07T09:56:17.132Z,3104
2016-04-07T09:57:17.134Z,3116
2016-04-07T09:58:17.137Z,3576
2016-04-07T09:59:17.140Z,4456
2016-04-07T10:00:17.142Z,4800
2016-04-07T10:01:17.145Z,4692
2016-04-07T10:02:17.131Z,4420
2016-04-07T10:03:17.150Z,3980
2016-04-07T10:04:17.137Z,3944
2016-04-07T10:05:17.140Z,4392
2016-04-07T10:06:17.143Z,4500
2016-04-07T10:07:17.146Z,4576
2016-04-07T10:08:17.178Z,4948
2016-04-07T10:09:17.291Z,4828
2016-04-07T10:10:17.184Z,4656
2016-04-07T10:11:17.140Z,4776
2016-04-07T10:12:17.142Z,5048
2016-04-07T10:13:17.145Z,4996
2016-04-07T10:14:17.148Z,4916
2016-04-07T10:15:17.150Z,4720
2016-04-07T10:16:17.154Z,4848
2016-04-07T10:17:17.156Z,5008
2016-04-07T10:18:17.175Z,5056
2016-04-07T10:19:17.147Z,4864
2016-04-07T10:20:17.164Z,4756
2016-04-07T10:21:17.152Z,4692
2016-04-07T10:22:17.154Z,4812
2016-04-07T10:23:17.158Z,5108
2016-04-07T10:24:17.160Z,5100
2016-04-07T10:25:17.178Z,5112
2016-04-07T10:26:17.166Z,5100
2016-04-07T10:27:17.199Z,5108
2016-04-07T10:28:17.171Z,5196
2016-04-07T10:29:17.157Z,5288
2016-04-07T10:30:17.176Z,5376
2016-04-07T10:31:17.162Z,5436
2016-04-07T10:32:17.165Z,5384
2016-04-07T10:33:17.184Z,5332
2016-04-07T10:34:17.187Z,5460
2016-04-07T10:35:19.643Z,5596
2016-04-07T10:36:17.161Z,5744
2016-04-07T10:37:17.179Z,5848
2016-04-07T10:38:17.166Z,5832
2016-04-07T10:39:17.184Z,5712
2016-04-07T10:40:17.296Z,5640
2016-04-07T10:41:17.189Z,5700
2016-04-07T10:42:17.239Z,5736
2016-04-07T10:43:17.211Z,5780
2016-04-07T10:44:17.198Z,5408
2016-04-07T10:45:17.217Z,5316
2016-04-07T10:46:17.188Z,5492
2016-04-07T10:47:17.191Z,5652
2016-04-07T10:48:17.225Z,5700
2016-04-07T10:49:17.227Z,5860
2016-04-07T10:50:17.199Z,5936
2016-04-07T10:51:17.202Z,6004
2016-04-07T10:52:17.205Z,5988
2016-04-07T10:53:17.191Z,6048
2016-04-07T10:54:17.194Z,6064
2016-04-07T10:55:31.727Z,6096
2016-04-07T10:56:17.246Z,6092
2016-04-07T10:57:17.218Z,5764
2016-04-07T10:58:17.220Z,5424
2016-04-07T10:59:17.223Z,4928
2016-04-07T11:00:17.225Z,4792
2016-04-07T11:01:17.228Z,4188
2016-04-07T11:02:17.215Z,3928
2016-04-07T11:03:17.202Z,3564
2016-04-07T11:04:17.221Z,3600
2016-04-07T11:05:17.223Z,3628
2016-04-07T11:06:17.226Z,3248
2016-04-07T11:07:17.228Z,3404
2016-04-07T11:08:17.231Z,3588
2016-04-07T11:09:17.233Z,3492
2016-04-07T11:10:17.392Z,3212
2016-04-07T11:11:17.239Z,3180
2016-04-07T11:12:17.242Z,3456
2016-04-07T11:13:17.245Z,3256
2016-04-07T11:14:17.248Z,3128
2016-04-07T11:15:17.250Z,3428
2016-04-07T11:16:17.269Z,3700
2016-04-07T11:17:17.255Z,3632
2016-04-07T11:18:17.258Z,3528
2016-04-07T11:19:17.277Z,3240
2016-04-07T11:20:17.264Z,3156
2016-04-07T11:21:17.267Z,3020
2016-04-07T11:22:17.269Z,2872
2016-04-07T11:23:17.256Z,3576
2016-04-07T11:24:17.258Z,4212
2016-04-07T11:25:17.277Z,4032
2016-04-07T11:26:17.279Z,3756
2016-04-07T11:27:17.282Z,3672
2016-04-07T11:28:17.285Z,4336
2016-04-07T11:29:17.272Z,4656
2016-04-07T11:30:17.291Z,4184
2016-04-07T11:31:17.293Z,3860
2016-04-07T11:32:17.296Z,3548
2016-04-07T11:33:17.299Z,3620
2016-04-07T11:34:17.113Z,3532
2016-04-07T11:35:17.288Z,3196
2016-04-07T11:36:17.291Z,3064
2016-04-07T11:37:17.278Z,3128
2016-04-07T11:38:17.281Z,3536
2016-04-07T11:39:17.299Z,3344
2016-04-07T11:40:17.334Z,3144
2016-04-07T11:41:17.289Z,3432
2016-04-07T11:42:17.307Z,4420
2016-04-07T11:43:17.342Z,5344
2016-04-07T11:44:17.281Z,5636
2016-04-07T11:45:17.315Z,5468
2016-04-07T11:46:17.303Z,5344
2016-04-07T11:47:17.305Z,5412
2016-04-07T11:48:17.292Z,5816
2016-04-07T11:49:17.311Z,5368
2016-04-07T11:50:17.297Z,5396
2016-04-07T11:51:17.347Z,5384
2016-04-07T11:52:17.334Z,5304
2016-04-07T11:53:17.321Z,5344
2016-04-07T11:54:17.355Z,4776
2016-04-07T11:55:17.358Z,4532
2016-04-07T11:56:17.314Z,4488
2016-04-07T11:57:17.175Z,4592
2016-04-07T11:58:17.350Z,4972
2016-04-07T11:59:17.338Z,5160
2016-04-07T12:00:17.668Z,5220
2016-04-07T12:01:17.327Z,5192
2016-04-07T12:02:17.361Z,5192
2016-04-07T12:03:17.332Z,5096
2016-04-07T12:04:17.335Z,4600
2016-04-07T12:05:17.338Z,4372
2016-04-07T12:06:17.356Z,4392
2016-04-07T12:07:17.327Z,4428
2016-04-07T12:08:17.346Z,4708
2016-04-07T12:09:17.348Z,4944
2016-04-07T12:10:17.429Z,4916
2016-04-07T12:11:17.353Z,4744
2016-04-07T12:12:17.372Z,4468
2016-04-07T12:13:17.390Z,4164
2016-04-07T12:14:17.362Z,3956
2016-04-07T12:15:17.365Z,4000
2016-04-07T12:16:17.367Z,3852
2016-04-07T12:17:17.354Z,3580
2016-04-07T12:18:17.372Z,3284
2016-04-07T12:19:17.359Z,2952
2016-04-07T12:20:17.378Z,2788
2016-04-07T12:21:17.380Z,2972
2016-04-07T12:22:17.383Z,3068
2016-04-07T12:23:17.385Z,2936
2016-04-07T12:24:17.388Z,2572
2016-04-07T12:25:17.266Z,2364
2016-04-07T12:26:17.378Z,2320
2016-04-07T12:27:17.381Z,2220
2016-04-07T12:28:17.415Z,2124
2016-04-07T12:29:17.386Z,1968
2016-04-07T12:30:17.389Z,1920
2016-04-07T12:31:17.407Z,1924
2016-04-07T12:32:17.394Z,1852
2016-04-07T12:33:17.396Z,1920
2016-04-07T12:34:17.399Z,1988
2016-04-07T12:35:17.402Z,1980
2016-04-07T12:36:17.421Z,2072
2016-04-07T12:37:17.393Z,2580
2016-04-07T12:38:17.410Z,2996
2016-04-07T12:39:17.398Z,3504
2016-04-07T12:40:17.494Z,3724
2016-04-07T12:41:17.403Z,3532
2016-04-07T12:42:17.406Z,3372
2016-04-07T12:43:17.424Z,3192
2016-04-07T12:44:17.412Z,3116
2016-04-07T12:45:17.414Z,3292
2016-04-07T12:46:17.417Z,3568
2016-04-07T12:47:17.434Z,3752
2016-04-07T12:48:17.422Z,3960
2016-04-07T12:49:17.424Z,3936
2016-04-07T12:50:17.442Z,3952
2016-04-07T12:51:17.430Z,4068
2016-04-07T12:52:17.432Z,4028
2016-04-07T12:53:17.436Z,3676
2016-04-07T12:54:17.438Z,3352
2016-04-07T12:55:17.535Z,3236
2016-04-07T12:56:17.431Z,3068
2016-04-07T12:57:17.449Z,3216
2016-04-07T12:58:16.702Z,3684
2016-04-07T12:59:17.438Z,3992
2016-04-07T13:00:17.457Z,3964
2016-04-07T13:01:17.444Z,4016
2016-04-07T13:02:17.447Z,3876
2016-04-07T13:03:17.449Z,3228
2016-04-07T13:04:17.452Z,2800
2016-04-07T13:05:17.455Z,2728
2016-04-07T13:06:17.457Z,2744
2016-04-07T13:07:17.460Z,2764
2016-04-07T13:08:17.479Z,2712
2016-04-07T13:09:17.450Z,2628
2016-04-07T13:10:17.343Z,2628
2016-04-07T13:11:17.471Z,2384
2016-04-07T13:12:17.473Z,2328
2016-04-07T13:13:17.477Z,2248
2016-04-07T13:14:17.479Z,2128
2016-04-07T13:15:17.482Z,2084
2016-04-07T13:16:17.469Z,1956
2016-04-07T13:17:17.472Z,1804
2016-04-07T13:18:17.489Z,1660
2016-04-07T13:19:17.492Z,1600
2016-04-07T13:20:17.480Z,1560
2016-04-07T13:21:17.466Z,1508
2016-04-07T13:22:17.486Z,1456
2016-04-07T13:23:17.488Z,1424
2016-04-07T13:24:17.491Z,1420
2016-04-07T13:25:17.509Z,1404
2016-04-07T13:26:17.480Z,1392
2016-04-07T13:27:17.530Z,1380
2016-04-07T13:28:17.552Z,1444
2016-04-07T13:29:17.508Z,1528
2016-04-07T13:30:17.496Z,1612
2016-04-07T13:31:17.514Z,1600
2016-04-07T13:32:17.486Z,1588
2016-04-07T13:33:17.488Z,1584
2016-04-07T13:34:17.522Z,1516
2016-04-07T13:35:17.509Z,1440
2016-04-07T13:36:17.496Z,1400
2016-04-07T13:37:17.498Z,1380
2016-04-07T13:38:17.501Z,1364
2016-04-07T13:39:17.520Z,1344
2016-04-07T13:40:17.538Z,1336
2016-04-07T13:41:17.510Z,1324
2016-04-07T13:42:17.512Z,1300
2016-04-07T13:43:17.500Z,1280
2016-04-07T13:44:17.518Z,1260
2016-04-07T13:45:17.520Z,1240
2016-04-07T13:46:17.523Z,1216
2016-04-07T13:47:17.510Z,1196